PWSweather.com
Personal Weather Stations
Station Observations
KG5EIU
Vista Oaks, St Paul, TX 75098

Vista OaksSt Paul, TX 75098

Lat: 33.0430204, Lon: -96.5552108

Elevation: 569

Station Type: Davis Vantage Pro2

https://davidcappello.com/weather/

Latest ConditionsUpdated 7:25:13 AM CDT Tuesday, Jul 23, 2019
Currently Today's Max Today's Min Today's Average
Temperature 71.1°F21.7°C 78.1°F25.6°C 70.4°F21.3°C 74.0°F23.3°C
Dew Point 64.6°F18.1°C 66.6°F19.2°C 63.9°F17.7°C 65.2°F18.4°C
Winds 6.0 mph NNE9.7 kmh NNE 9.0 mph -14.5 kmh - - 4.1 mph 6.6 kmh
Wind Gusts -- -- - -
Humidity 80% 80% 68% 74%
Pressure 30.08 in1018.6 mb 30.08 in1018.6 mb 30.02 in1016.6 mb -
Hour Temp Dew Point Humidity Winds Wind Gusts Pressure Precip Precip Rate Daily Precip Total
07:25 AM 71.1°F21.7°C 64.6°F18.1°C 80% 6.0 mph NNE9.7 kmh NNE -- 30.08 in1018.6 mb 0.00 in0.0 mm 0.00 in0.0 mm 0.00 in0.0 mm
07:20 AM 70.9°F21.6°C 64.4°F18.0°C 80% 4.0 mph N6.4 kmh N -- 30.08 in1018.6 mb 0.00 in0.0 mm 0.00 in0.0 mm 0.00 in0.0 mm
07:15 AM 70.7°F21.5°C 64.2°F17.9°C 80% 3.0 mph N4.8 kmh N -- 30.08 in1018.6 mb 0.00 in0.0 mm 0.00 in0.0 mm 0.00 in0.0 mm
07:10 AM 70.6°F21.4°C 64.0°F17.8°C 80% 1.0 mph N1.6 kmh N -- 30.08 in1018.6 mb 0.00 in0.0 mm 0.00 in0.0 mm 0.00 in0.0 mm
07:05 AM 70.6°F21.4°C 64.0°F17.8°C 80% 6.0 mph NNE9.7 kmh NNE -- 30.08 in1018.6 mb 0.00 in0.0 mm 0.00 in0.0 mm 0.00 in0.0 mm
07:00 AM 70.5°F21.4°C 64.0°F17.8°C 80% 3.0 mph N4.8 kmh N -- 30.08 in1018.6 mb 0.00 in0.0 mm 0.00 in0.0 mm 0.00 in0.0 mm
06:55 AM 70.4°F21.3°C 63.9°F17.7°C 80% 4.0 mph NNE6.4 kmh NNE -- 30.08 in1018.6 mb 0.00 in0.0 mm 0.00 in0.0 mm 0.00 in0.0 mm
06:50 AM 70.5°F21.4°C 64.0°F17.8°C 80% 3.0 mph N4.8 kmh N -- 30.08 in1018.6 mb 0.00 in0.0 mm 0.00 in0.0 mm 0.00 in0.0 mm
06:45 AM 70.6°F21.4°C 64.0°F17.8°C 80% 4.0 mph N6.4 kmh N -- 30.08 in1018.6 mb 0.00 in0.0 mm 0.00 in0.0 mm 0.00 in0.0 mm
06:40 AM 70.7°F21.5°C 64.2°F17.9°C 80% 3.0 mph N4.8 kmh N -- 30.07 in1018.3 mb 0.00 in0.0 mm 0.00 in0.0 mm 0.00 in0.0 mm
06:35 AM 70.8°F21.6°C 64.4°F18.0°C 80% 2.0 mph N3.2 kmh N -- 30.07 in1018.3 mb 0.00 in0.0 mm 0.00 in0.0 mm 0.00 in0.0 mm
06:30 AM 70.8°F21.6°C 64.4°F18.0°C 80% 5.0 mph N8.0 kmh N -- 30.07 in1018.3 mb 0.00 in0.0 mm 0.00 in0.0 mm 0.00 in0.0 mm
06:25 AM 70.9°F21.6°C 64.0°F17.8°C 79% 6.0 mph N9.7 kmh N -- 30.07 in1018.3 mb 0.00 in0.0 mm 0.00 in0.0 mm 0.00 in0.0 mm
06:20 AM 70.9°F21.6°C 64.0°F17.8°C 79% 5.0 mph NNE8.0 kmh NNE -- 30.07 in1018.3 mb 0.00 in0.0 mm 0.00 in0.0 mm 0.00 in0.0 mm
06:15 AM 70.9°F21.6°C 64.0°F17.8°C 79% 4.0 mph NNE6.4 kmh NNE -- 30.07 in1018.3 mb 0.00 in0.0 mm 0.00 in0.0 mm 0.00 in0.0 mm
06:10 AM 70.9°F21.6°C 64.0°F17.8°C 79% 3.0 mph N4.8 kmh N -- 30.07 in1018.3 mb 0.00 in0.0 mm 0.00 in0.0 mm 0.00 in0.0 mm
06:05 AM 70.8°F21.6°C 64.0°F17.8°C 79% 1.0 mph N1.6 kmh N -- 30.07 in1018.3 mb 0.00 in0.0 mm 0.00 in0.0 mm 0.00 in0.0 mm
06:00 AM 70.9°F21.6°C 64.0°F17.8°C 79% 1.0 mph N1.6 kmh N -- 30.06 in1017.9 mb 0.00 in0.0 mm 0.00 in0.0 mm 0.00 in0.0 mm
05:55 AM 71.0°F21.7°C 64.2°F17.9°C 79% 6.0 mph NNE9.7 kmh NNE -- 30.06 in1017.9 mb 0.00 in0.0 mm 0.00 in0.0 mm 0.00 in0.0 mm
05:50 AM 71.0°F21.7°C 64.2°F17.9°C 79% 3.0 mph N4.8 kmh N -- 30.06 in1017.9 mb 0.00 in0.0 mm 0.00 in0.0 mm 0.00 in0.0 mm
05:45 AM 71.1°F21.7°C 64.2°F17.9°C 79% 3.0 mph N4.8 kmh N -- 30.06 in1017.9 mb 0.00 in0.0 mm 0.00 in0.0 mm 0.00 in0.0 mm
05:40 AM 71.2°F21.8°C 64.4°F18.0°C 79% 1.0 mph N1.6 kmh N -- 30.06 in1017.9 mb 0.00 in0.0 mm 0.00 in0.0 mm 0.00 in0.0 mm
05:35 AM 71.3°F21.8°C 64.4°F18.0°C 79% 2.0 mph N3.2 kmh N -- 30.05 in1017.6 mb 0.00 in0.0 mm 0.00 in0.0 mm 0.00 in0.0 mm
05:30 AM 71.5°F21.9°C 64.6°F18.1°C 79% 4.0 mph NNE6.4 kmh NNE -- 30.05 in1017.6 mb 0.00 in0.0 mm 0.00 in0.0 mm 0.00 in0.0 mm
05:25 AM 71.7°F22.1°C 64.9°F18.3°C 79% 2.0 mph NNE3.2 kmh NNE -- 30.05 in1017.6 mb 0.00 in0.0 mm 0.00 in0.0 mm 0.00 in0.0 mm
05:20 AM 71.9°F22.2°C 65.1°F18.4°C 79% 3.0 mph NNE4.8 kmh NNE -- 30.05 in1017.6 mb 0.00 in0.0 mm 0.00 in0.0 mm 0.00 in0.0 mm
05:15 AM 72.0°F22.2°C 65.1°F18.4°C 79% 2.0 mph NNE3.2 kmh NNE -- 30.05 in1017.6 mb 0.00 in0.0 mm 0.00 in0.0 mm 0.00 in0.0 mm
05:10 AM 72.1°F22.3°C 64.9°F18.3°C 78% 1.0 mph NNE1.6 kmh NNE -- 30.05 in1017.6 mb 0.00 in0.0 mm 0.00 in0.0 mm 0.00 in0.0 mm
05:05 AM 72.2°F22.3°C 64.9°F18.3°C 78% 3.0 mph NNW4.8 kmh NNW -- 30.05 in1017.6 mb 0.00 in0.0 mm 0.00 in0.0 mm 0.00 in0.0 mm
05:00 AM 72.4°F22.4°C 65.1°F18.4°C 78% 3.0 mph NNW4.8 kmh NNW -- 30.05 in1017.6 mb 0.00 in0.0 mm 0.00 in0.0 mm 0.00 in0.0 mm
04:55 AM 72.5°F22.5°C 64.9°F18.3°C 77% Calm Calm -- 30.05 in1017.6 mb 0.00 in0.0 mm 0.00 in0.0 mm 0.00 in0.0 mm
04:50 AM 72.6°F22.6°C 65.1°F18.4°C 77% 3.0 mph N4.8 kmh N -- 30.05 in1017.6 mb 0.00 in0.0 mm 0.00 in0.0 mm 0.00 in0.0 mm
04:45 AM 72.7°F22.6°C 65.1°F18.4°C 77% 4.0 mph N6.4 kmh N -- 30.05 in1017.6 mb 0.00 in0.0 mm 0.00 in0.0 mm 0.00 in0.0 mm
04:40 AM 72.8°F22.7°C 65.3°F18.5°C 77% 4.0 mph NNE6.4 kmh NNE -- 30.05 in1017.6 mb 0.00 in0.0 mm 0.00 in0.0 mm 0.00 in0.0 mm
04:35 AM 72.8°F22.7°C 65.3°F18.5°C 77% 7.0 mph N11.3 kmh N -- 30.04 in1017.3 mb 0.00 in0.0 mm 0.00 in0.0 mm 0.00 in0.0 mm
04:30 AM 72.9°F22.7°C 64.8°F18.2°C 76% 2.0 mph N3.2 kmh N -- 30.05 in1017.6 mb 0.00 in0.0 mm 0.00 in0.0 mm 0.00 in0.0 mm
04:25 AM 73.0°F22.8°C 64.9°F18.3°C 76% 5.0 mph N8.0 kmh N -- 30.04 in1017.3 mb 0.00 in0.0 mm 0.00 in0.0 mm 0.00 in0.0 mm
04:20 AM 73.2°F22.9°C 64.8°F18.2°C 75% 4.0 mph N6.4 kmh N -- 30.04 in1017.3 mb 0.00 in0.0 mm 0.00 in0.0 mm 0.00 in0.0 mm
04:15 AM 73.3°F22.9°C 64.8°F18.2°C 75% 5.0 mph N8.0 kmh N -- 30.04 in1017.3 mb 0.00 in0.0 mm 0.00 in0.0 mm 0.00 in0.0 mm
04:10 AM 73.4°F23.0°C 64.9°F18.3°C 75% 4.0 mph N6.4 kmh N -- 30.04 in1017.3 mb 0.00 in0.0 mm 0.00 in0.0 mm 0.00 in0.0 mm
04:05 AM 73.5°F23.1°C 65.1°F18.4°C 75% 6.0 mph N9.7 kmh N -- 30.04 in1017.3 mb 0.00 in0.0 mm 0.00 in0.0 mm 0.00 in0.0 mm
04:00 AM 73.6°F23.1°C 65.1°F18.4°C 75% 8.0 mph NNE12.9 kmh NNE -- 30.04 in1017.3 mb 0.00 in0.0 mm 0.00 in0.0 mm 0.00 in0.0 mm
03:55 AM 73.7°F23.2°C 65.3°F18.5°C 75% 5.0 mph NNE8.0 kmh NNE -- 30.04 in1017.3 mb 0.00 in0.0 mm 0.00 in0.0 mm 0.00 in0.0 mm
03:50 AM 73.7°F23.2°C 64.9°F18.3°C 74% 4.0 mph N6.4 kmh N -- 30.04 in1017.3 mb 0.00 in0.0 mm 0.00 in0.0 mm 0.00 in0.0 mm
03:45 AM 73.9°F23.3°C 65.1°F18.4°C 74% 6.0 mph NNE9.7 kmh NNE -- 30.04 in1017.3 mb 0.00 in0.0 mm 0.00 in0.0 mm 0.00 in0.0 mm
03:40 AM 74.0°F23.3°C 64.8°F18.2°C 73% 2.0 mph NNW3.2 kmh NNW -- 30.04 in1017.3 mb 0.00 in0.0 mm 0.00 in0.0 mm 0.00 in0.0 mm
03:35 AM 74.1°F23.4°C 64.9°F18.3°C 73% 6.0 mph N9.7 kmh N -- 30.04 in1017.3 mb 0.00 in0.0 mm 0.00 in0.0 mm 0.00 in0.0 mm
03:30 AM 74.3°F23.5°C 65.1°F18.4°C 73% 3.0 mph N4.8 kmh N -- 30.04 in1017.3 mb 0.00 in0.0 mm 0.00 in0.0 mm 0.00 in0.0 mm
03:25 AM 74.5°F23.6°C 65.3°F18.5°C 73% 5.0 mph N8.0 kmh N -- 30.04 in1017.3 mb 0.00 in0.0 mm 0.00 in0.0 mm 0.00 in0.0 mm
03:20 AM 74.7°F23.7°C 64.9°F18.3°C 72% 5.0 mph N8.0 kmh N -- 30.04 in1017.3 mb 0.00 in0.0 mm 0.00 in0.0 mm 0.00 in0.0 mm
03:15 AM 74.8°F23.8°C 65.1°F18.4°C 72% 7.0 mph N11.3 kmh N -- 30.04 in1017.3 mb 0.00 in0.0 mm 0.00 in0.0 mm 0.00 in0.0 mm
03:10 AM 74.8°F23.8°C 65.1°F18.4°C 72% 5.0 mph NNE8.0 kmh NNE -- 30.03 in1016.9 mb 0.00 in0.0 mm 0.00 in0.0 mm 0.00 in0.0 mm
03:05 AM 74.9°F23.8°C 65.1°F18.4°C 72% 1.0 mph N1.6 kmh N -- 30.03 in1016.9 mb 0.00 in0.0 mm 0.00 in0.0 mm 0.00 in0.0 mm
03:00 AM 75.0°F23.9°C 65.3°F18.5°C 72% 4.0 mph N6.4 kmh N -- 30.03 in1016.9 mb 0.00 in0.0 mm 0.00 in0.0 mm 0.00 in0.0 mm
02:55 AM 75.2°F24.0°C 65.5°F18.6°C 72% 7.0 mph NNE11.3 kmh NNE -- 30.03 in1016.9 mb 0.00 in0.0 mm 0.00 in0.0 mm 0.00 in0.0 mm
02:50 AM 75.4°F24.1°C 65.7°F18.7°C 72% 6.0 mph NNE9.7 kmh NNE -- 30.03 in1016.9 mb 0.00 in0.0 mm 0.00 in0.0 mm 0.00 in0.0 mm
02:45 AM 75.6°F24.2°C 65.5°F18.6°C 71% 3.0 mph NNE4.8 kmh NNE -- 30.03 in1016.9 mb 0.00 in0.0 mm 0.00 in0.0 mm 0.00 in0.0 mm
02:40 AM 75.6°F24.2°C 65.5°F18.6°C 71% 9.0 mph NE14.5 kmh NE -- 30.03 in1016.9 mb 0.00 in0.0 mm 0.00 in0.0 mm 0.00 in0.0 mm
02:35 AM 75.6°F24.2°C 65.5°F18.6°C 71% 4.0 mph NE6.4 kmh NE -- 30.03 in1016.9 mb 0.00 in0.0 mm 0.00 in0.0 mm 0.00 in0.0 mm
02:30 AM 75.7°F24.3°C 65.7°F18.7°C 71% 4.0 mph NE6.4 kmh NE -- 30.03 in1016.9 mb 0.00 in0.0 mm 0.00 in0.0 mm 0.00 in0.0 mm
02:25 AM 75.7°F24.3°C 65.7°F18.7°C 71% 3.0 mph NE4.8 kmh NE -- 30.03 in1016.9 mb 0.00 in0.0 mm 0.00 in0.0 mm 0.00 in0.0 mm
02:20 AM 75.7°F24.3°C 65.7°F18.7°C 71% 8.0 mph NNE12.9 kmh NNE -- 30.03 in1016.9 mb 0.00 in0.0 mm 0.00 in0.0 mm 0.00 in0.0 mm
02:15 AM 75.7°F24.3°C 65.7°F18.7°C 71% 5.0 mph NNW8.0 kmh NNW -- 30.03 in1016.9 mb 0.00 in0.0 mm 0.00 in0.0 mm 0.00 in0.0 mm
02:10 AM 75.7°F24.3°C 65.7°F18.7°C 71% 6.0 mph N9.7 kmh N -- 30.03 in1016.9 mb 0.00 in0.0 mm 0.00 in0.0 mm 0.00 in0.0 mm
02:05 AM 75.8°F24.3°C 65.7°F18.7°C 71% 4.0 mph N6.4 kmh N -- 30.03 in1016.9 mb 0.00 in0.0 mm 0.00 in0.0 mm 0.00 in0.0 mm
02:00 AM 75.9°F24.4°C 65.8°F18.8°C 71% 5.0 mph N8.0 kmh N -- 30.03 in1016.9 mb 0.00 in0.0 mm 0.00 in0.0 mm 0.00 in0.0 mm
01:55 AM 76.0°F24.4°C 65.8°F18.8°C 71% 6.0 mph N9.7 kmh N -- 30.03 in1016.9 mb 0.00 in0.0 mm 0.00 in0.0 mm 0.00 in0.0 mm
01:50 AM 76.2°F24.6°C 65.8°F18.8°C 70% 5.0 mph N8.0 kmh N -- 30.03 in1016.9 mb 0.00 in0.0 mm 0.00 in0.0 mm 0.00 in0.0 mm
01:45 AM 76.3°F24.6°C 65.8°F18.8°C 70% 4.0 mph N6.4 kmh N -- 30.03 in1016.9 mb 0.00 in0.0 mm 0.00 in0.0 mm 0.00 in0.0 mm
01:40 AM 76.3°F24.6°C 65.8°F18.8°C 70% 6.0 mph NNE9.7 kmh NNE -- 30.03 in1016.9 mb 0.00 in0.0 mm 0.00 in0.0 mm 0.00 in0.0 mm
01:35 AM 76.3°F24.6°C 65.8°F18.8°C 70% 5.0 mph N8.0 kmh N -- 30.03 in1016.9 mb 0.00 in0.0 mm 0.00 in0.0 mm 0.00 in0.0 mm
01:30 AM 76.4°F24.7°C 66.0°F18.9°C 70% 6.0 mph NW9.7 kmh NW -- 30.03 in1016.9 mb 0.00 in0.0 mm 0.00 in0.0 mm 0.00 in0.0 mm
01:25 AM 76.5°F24.7°C 66.0°F18.9°C 70% 4.0 mph NNW6.4 kmh NNW -- 30.03 in1016.9 mb 0.00 in0.0 mm 0.00 in0.0 mm 0.00 in0.0 mm
01:20 AM 76.5°F24.7°C 66.0°F18.9°C 70% 4.0 mph N6.4 kmh N -- 30.03 in1016.9 mb 0.00 in0.0 mm 0.00 in0.0 mm 0.00 in0.0 mm
01:15 AM 76.6°F24.8°C 66.0°F18.9°C 70% 4.0 mph N6.4 kmh N -- 30.03 in1016.9 mb 0.00 in0.0 mm 0.00 in0.0 mm 0.00 in0.0 mm
01:10 AM 76.7°F24.8°C 66.0°F18.9°C 70% 5.0 mph N8.0 kmh N -- 30.03 in1016.9 mb 0.00 in0.0 mm 0.00 in0.0 mm 0.00 in0.0 mm
01:05 AM 76.9°F24.9°C 66.2°F19.0°C 70% 2.0 mph N3.2 kmh N -- 30.03 in1016.9 mb 0.00 in0.0 mm 0.00 in0.0 mm 0.00 in0.0 mm
01:00 AM 76.9°F24.9°C 66.2°F19.0°C 70% 4.0 mph N6.4 kmh N -- 30.04 in1017.3 mb 0.00 in0.0 mm 0.00 in0.0 mm 0.00 in0.0 mm
12:55 AM 77.1°F25.1°C 66.6°F19.2°C 70% 4.0 mph N6.4 kmh N -- 30.04 in1017.3 mb 0.00 in0.0 mm 0.00 in0.0 mm 0.00 in0.0 mm
12:50 AM 77.1°F25.1°C 66.2°F19.0°C 69% 5.0 mph N8.0 kmh N -- 30.04 in1017.3 mb 0.00 in0.0 mm 0.00 in0.0 mm 0.00 in0.0 mm
12:45 AM 77.2°F25.1°C 66.2°F19.0°C 69% 3.0 mph N4.8 kmh N -- 30.04 in1017.3 mb 0.00 in0.0 mm 0.00 in0.0 mm 0.00 in0.0 mm
12:40 AM 77.2°F25.1°C 66.2°F19.0°C 69% 1.0 mph NNE1.6 kmh NNE -- 30.04 in1017.3 mb 0.00 in0.0 mm 0.00 in0.0 mm 0.00 in0.0 mm
12:35 AM 77.3°F25.2°C 66.4°F19.1°C 69% 3.0 mph N4.8 kmh N -- 30.04 in1017.3 mb 0.00 in0.0 mm 0.00 in0.0 mm 0.00 in0.0 mm
12:30 AM 77.5°F25.3°C 66.6°F19.2°C 69% 5.0 mph NNW8.0 kmh NNW -- 30.04 in1017.3 mb 0.00 in0.0 mm 0.00 in0.0 mm 0.00 in0.0 mm
12:25 AM 77.6°F25.3°C 66.6°F19.2°C 69% 3.0 mph N4.8 kmh N -- 30.04 in1017.3 mb 0.00 in0.0 mm 0.00 in0.0 mm 0.00 in0.0 mm
12:20 AM 77.6°F25.3°C 66.2°F19.0°C 68% 4.0 mph N6.4 kmh N -- 30.03 in1016.9 mb 0.00 in0.0 mm 0.00 in0.0 mm 0.00 in0.0 mm
12:15 AM 77.7°F25.4°C 66.4°F19.1°C 68% 5.0 mph N8.0 kmh N -- 30.03 in1016.9 mb 0.00 in0.0 mm 0.00 in0.0 mm 0.00 in0.0 mm
12:10 AM 77.8°F25.4°C 66.4°F19.1°C 68% 4.0 mph N6.4 kmh N -- 30.03 in1016.9 mb 0.00 in0.0 mm 0.00 in0.0 mm 0.00 in0.0 mm
12:05 AM 77.9°F25.5°C 66.4°F19.1°C 68% 4.0 mph N6.4 kmh N -- 30.03 in1016.9 mb 0.00 in0.0 mm 0.00 in0.0 mm 0.00 in0.0 mm
12:00 AM 78.1°F25.6°C 66.6°F19.2°C 68% 3.0 mph N4.8 kmh N -- 30.02 in1016.6 mb 0.00 in0.0 mm 0.00 in0.0 mm 0.00 in0.0 mm